Time;durP1;ratioP1;P1;durP2;ratioP2;P2;SDS_P1;SDS_P2;PMS_P1;PMS_P2;Temp;Humidity;BMP_temperature;BMP_pressure;BME280_temperature;BME280_humidity;BME280_pressure;Samples;Min_cycle;Max_cycle;Signal;HPM_P1;HPM_P2
2022/07/24 00:00:01;;;;;;;;;;;;;;;24.14;57.26;100084.88;1088359;46;19943;-85
2022/07/24 00:01:05;;;;;;;;;;;;;;;24.12;57.55;100084.31;1088126;54;19942;-87
2022/07/24 00:02:06;;;;;;;;;;;;;;;24.11;57.36;100086.19;1088993;46;19951;-86
2022/07/24 00:03:10;;;;;;;;;;;;;;;24.10;57.80;100091.91;1088020;54;19942;-83
2022/07/24 00:04:11;;;;;;;;;;;;;;;24.05;57.86;100087.13;1088066;54;19950;-84
2022/07/24 00:05:15;;;;;;;;;;;;;;;24.02;57.89;100093.06;1088367;46;19954;-85
2022/07/24 00:06:16;;;;;;;;;;;;;;;24.00;58.06;100100.63;1088101;54;19942;-85
2022/07/24 00:07:23;;;;;;;;;;;;;;;23.97;57.86;100096.47;1088002;54;19986;-85
2022/07/24 00:08:24;;;;;;;;;;;;;;;23.93;58.34;100095.28;1088003;54;19942;-86
2022/07/24 00:09:27;;;;;;;;;;;;;;;23.88;58.47;100091.56;1088078;54;19943;-85
2022/07/24 00:10:29;;;;;;;;;;;;;;;23.84;58.53;100099.38;1088118;54;19942;-85
2022/07/24 00:11:32;;;;;;;;;;;;;;;23.85;58.29;100087.41;1088111;54;19943;-85
2022/07/24 00:12:34;;;;;;;;;;;;;;;23.87;58.00;100089.91;1088060;54;19942;-87
2022/07/24 00:13:38;;;;;;;;;;;;;;;23.84;58.15;100097.47;1088087;54;20664;-86
2022/07/24 00:14:39;;;;;;;;;;;;;;;23.86;58.02;100094.50;1088082;54;20843;-85
2022/07/24 00:15:43;;;;;;;;;;;;;;;23.83;58.49;100095.81;1088034;54;20578;-85
2022/07/24 00:16:44;;;;;;;;;;;;;;;23.80;58.41;100095.44;1088165;54;19974;-86
2022/07/24 00:17:48;;;;;;;;;;;;;;;23.78;58.46;100090.22;1088025;54;20006;-85
2022/07/24 00:18:49;;;;;;;;;;;;;;;23.77;58.47;100096.75;1088098;54;19942;-84
2022/07/24 00:19:53;;;;;;;;;;;;;;;23.75;58.63;100104.31;1088112;54;19982;-85
2022/07/24 00:20:57;;;;;;;;;;;;;;;23.73;58.38;100095.53;1088138;54;19949;-86
2022/07/24 00:21:59;;;;;;;;;;;;;;;23.69;58.53;100099.81;1089890;39;20467;-85
2022/07/24 00:23:06;;;;;;;;;;;;;;;23.63;58.58;100104.28;1088037;54;19950;-87
2022/07/24 00:24:08;;;;;;;;;;;;;;;23.63;58.94;100095.25;1088044;54;19931;-85
2022/07/24 00:25:11;;;;;;;;;;;;;;;23.62;58.68;100097.16;1092274;31;20821;-85
2022/07/24 00:26:12;;;;;;;;;;;;;;;23.63;58.94;100089.78;1088083;54;19966;-86
2022/07/24 00:27:16;;;;;;;;;;;;;;;23.65;58.58;100087.66;1088046;54;19943;-86
2022/07/24 00:28:18;;;;;;;;;;;;;;;23.65;58.71;100093.13;1089978;39;20565;-86
2022/07/24 00:29:22;;;;;;;;;;;;;;;23.65;58.85;100090.41;1088038;54;19942;-85
2022/07/24 00:30:23;;;;;;;;;;;;;;;23.58;59.13;100085.03;1088065;54;19939;-86
2022/07/24 00:31:27;;;;;;;;;;;;;;;23.50;59.68;100091.66;1088018;54;19992;-86
2022/07/24 00:32:28;;;;;;;;;;;;;;;23.52;58.96;100089.50;1088058;54;19949;-85
2022/07/24 00:33:32;;;;;;;;;;;;;;;23.52;58.81;100083.22;1087943;54;19927;-87
2022/07/24 00:34:33;;;;;;;;;;;;;;;23.56;58.92;100091.78;1088498;46;19942;-85
2022/07/24 00:35:37;;;;;;;;;;;;;;;23.59;58.93;100088.59;1088000;54;19943;-87
2022/07/24 00:36:41;;;;;;;;;;;;;;;23.60;58.61;100088.34;1087642;54;19950;-86
2022/07/24 00:37:46;;;;;;;;;;;;;;;23.60;58.78;100085.63;1088070;54;19943;-88
2022/07/24 00:38:52;;;;;;;;;;;;;;;23.60;58.73;100091.09;1088222;47;19954;-87
2022/07/24 00:39:53;;;;;;;;;;;;;;;23.60;58.88;100091.09;1088154;54;19939;-85
2022/07/24 00:40:57;;;;;;;;;;;;;;;23.59;59.10;100094.06;1088074;54;19942;-87
2022/07/24 00:41:59;;;;;;;;;;;;;;;23.59;59.08;100088.59;1088103;54;19942;-87
2022/07/24 00:43:03;;;;;;;;;;;;;;;23.59;58.95;100088.59;1088634;46;19946;-88
2022/07/24 00:44:05;;;;;;;;;;;;;;;23.59;58.93;100083.13;1088382;54;19942;-86
2022/07/24 00:45:10;;;;;;;;;;;;;;;23.58;58.97;100084.19;1088253;54;19938;-86
2022/07/24 00:46:11;;;;;;;;;;;;;;;23.58;58.93;100085.03;1088248;54;19938;-85
2022/07/24 00:47:15;;;;;;;;;;;;;;;23.59;58.79;100085.88;1088341;46;19943;-86
2022/07/24 00:48:16;;;;;;;;;;;;;;;23.59;58.80;100081.22;1088217;54;20002;-86
2022/07/24 00:49:21;;;;;;;;;;;;;;;23.61;58.79;100092.75;1088061;54;20677;-86
2022/07/24 00:50:23;;;;;;;;;;;;;;;23.60;58.88;100079.34;1086421;39;20349;-80
2022/07/24 00:51:27;;;;;;;;;;;;;;;23.58;58.92;100084.19;1087633;54;19978;-83
2022/07/24 00:52:29;;;;;;;;;;;;;;;23.55;58.90;100082.78;1087653;54;19943;-80
2022/07/24 00:53:32;;;;;;;;;;;;;;;23.55;58.89;100087.38;1086695;54;19946;-80
2022/07/24 00:54:36;;;;;;;;;;;;;;;23.41;60.23;100086.72;1086485;54;19953;-81
2022/07/24 00:55:41;;;;;;;;;;;;;;;23.27;61.11;100075.13;1086794;54;20551;-82
2022/07/24 00:56:48;;;;;;;;;;;;;;;23.17;61.02;100081.94;1087290;54;19947;-83
2022/07/24 00:57:53;;;;;;;;;;;;;;;23.00;61.83;100078.13;1087761;39;20531;-81
2022/07/24 00:58:54;;;;;;;;;;;;;;;22.84;62.62;100087.72;1087682;54;19942;-82
2022/07/24 00:59:58;;;;;;;;;;;;;;;22.81;62.36;100089.03;1087799;54;19943;-80
2022/07/24 01:00:59;;;;;;;;;;;;;;;22.71;62.93;100077.81;1087944;54;19943;-80
2022/07/24 01:02:03;;;;;;;;;;;;;;;22.59;63.10;100080.44;1087906;54;19942;-82
2022/07/24 01:03:04;;;;;;;;;;;;;;;22.50;63.67;100079.88;1088105;47;20049;-81
2022/07/24 01:04:12;;;;;;;;;;;;;;;22.42;64.13;100082.88;1088051;46;19942;-82
2022/07/24 01:05:16;;;;;;;;;;;;;;;22.40;64.20;100090.44;1087885;54;19945;-82
2022/07/24 01:06:20;;;;;;;;;;;;;;;22.29;64.64;100087.34;1088124;54;19935;-82
2022/07/24 01:07:21;;;;;;;;;;;;;;;22.18;64.75;100088.06;1092209;46;19939;-81
2022/07/24 01:08:28;;;;;;;;;;;;;;;22.16;65.02;100092.88;1089905;46;19946;-81
2022/07/24 01:09:30;;;;;;;;;;;;;;;22.19;65.05;100091.59;1088476;46;19943;-82
2022/07/24 01:12:27;;;;;;;;;;;;;;;22.16;64.78;100092.88;1087556;54;19938;-82
2022/07/24 01:13:34;;;;;;;;;;;;;;;22.06;65.39;100087.09;1090323;46;19942;-81
2022/07/24 01:14:46;;;;;;;;;;;;;;;22.03;65.62;100099.25;1087777;54;19942;-81
2022/07/24 01:15:47;;;;;;;;;;;;;;;22.01;65.64;100089.66;1088623;46;19929;-82
2022/07/24 01:16:51;;;;;;;;;;;;;;;22.03;65.75;100098.41;1087847;54;19949;-81
2022/07/24 01:17:52;;;;;;;;;;;;;;;21.94;65.89;100092.41;1087521;54;19950;-82
2022/07/24 01:19:07;;;;;;;;;;;;;;;21.88;66.18;100088.69;1087557;54;19950;-83
2022/07/24 01:20:17;;;;;;;;;;;;;;;21.89;66.07;100093.06;1087937;54;19942;-83
2022/07/24 01:21:25;;;;;;;;;;;;;;;21.99;65.50;100092.56;1088077;54;19942;-83
2022/07/24 01:22:27;;;;;;;;;;;;;;;21.99;65.85;100089.84;1087979;54;20010;-84
2022/07/24 01:23:30;;;;;;;;;;;;;;;21.97;65.62;100089.22;1087953;46;19939;-79
2022/07/24 01:24:32;;;;;;;;;;;;;;;21.91;65.99;100082.81;1087875;46;19946;-80
2022/07/24 01:25:35;;;;;;;;;;;;;;;21.85;66.28;100091.00;1088435;46;19946;-82
2022/07/24 01:26:37;;;;;;;;;;;;;;;21.93;66.02;100091.56;1087505;54;19943;-79
2022/07/24 01:27:40;;;;;;;;;;;;;;;21.94;65.97;100093.22;1087423;54;19991;-81
2022/07/24 01:28:41;;;;;;;;;;;;;;;21.94;66.19;100089.69;1087545;54;19938;-82
2022/07/24 01:29:45;;;;;;;;;;;;;;;21.94;66.02;100087.78;1087518;54;19949;-81
2022/07/24 01:30:46;;;;;;;;;;;;;;;21.93;65.93;100088.84;1087625;54;19946;-82
2022/07/24 01:31:50;;;;;;;;;;;;;;;21.94;65.98;100085.06;1087848;54;19982;-79
2022/07/24 01:32:51;;;;;;;;;;;;;;;21.87;66.25;100086.19;1087825;54;19946;-81
2022/07/24 01:33:55;;;;;;;;;;;;;;;21.93;66.18;100088.03;1087836;54;19950;-80
2022/07/24 01:34:56;;;;;;;;;;;;;;;22.00;65.99;100088.81;1087881;54;19949;-80
2022/07/24 01:36:00;;;;;;;;;;;;;;;22.06;65.58;100089.81;1087831;54;19982;-79
2022/07/24 01:37:03;;;;;;;;;;;;;;;22.05;65.44;100096.31;1087638;54;19943;-79
2022/07/24 01:38:07;;;;;;;;;;;;;;;22.10;65.43;100088.34;1087776;54;19945;-79
2022/07/24 01:39:08;;;;;;;;;;;;;;;22.12;64.83;100089.78;1087857;54;19943;-80
2022/07/24 01:40:13;;;;;;;;;;;;;;;22.10;65.02;100088.34;1087812;54;19943;-79
2022/07/24 01:41:14;;;;;;;;;;;;;;;22.16;64.96;100089.31;1087856;54;19937;-80
2022/07/24 01:42:19;;;;;;;;;;;;;;;22.21;64.95;100093.06;1087757;54;20027;-81
2022/07/24 01:43:21;;;;;;;;;;;;;;;22.11;65.19;100085.38;1087818;54;19950;-80
2022/07/24 01:44:24;;;;;;;;;;;;;;;22.05;65.47;100090.88;1088774;46;20609;-82
2022/07/24 01:45:25;;;;;;;;;;;;;;;22.02;65.65;100089.44;1087803;54;19943;-80
2022/07/24 01:46:30;;;;;;;;;;;;;;;22.05;65.64;100089.00;1087829;54;20665;-79
2022/07/24 01:47:31;;;;;;;;;;;;;;;21.99;65.54;100086.31;1087816;54;19943;-80
2022/07/24 01:48:34;;;;;;;;;;;;;;;21.94;66.12;100089.69;1087843;54;19950;-80
2022/07/24 01:49:36;;;;;;;;;;;;;;;21.85;66.36;100080.94;1087866;54;19949;-79
2022/07/24 01:50:39;;;;;;;;;;;;;;;21.79;66.41;100090.81;1087789;54;19943;-81
2022/07/24 01:51:40;;;;;;;;;;;;;;;21.76;66.84;100088.53;1087826;54;19942;-79
2022/07/24 01:52:47;;;;;;;;;;;;;;;21.78;66.55;100091.03;1087773;54;20633;-79
2022/07/24 01:53:48;;;;;;;;;;;;;;;21.76;66.75;100087.69;1087859;54;20637;-79
2022/07/24 01:54:52;;;;;;;;;;;;;;;21.68;66.59;100086.06;1087780;54;19943;-79
2022/07/24 01:55:53;;;;;;;;;;;;;;;21.76;66.54;100093.13;1087796;54;19942;-80
2022/07/24 01:56:57;;;;;;;;;;;;;;;21.76;66.25;100085.81;1087820;54;19942;-79
2022/07/24 01:57:58;;;;;;;;;;;;;;;21.68;66.55;100085.22;1087783;54;19942;-79
2022/07/24 01:59:02;;;;;;;;;;;;;;;21.62;66.78;100089.66;1087827;54;19949;-80
2022/07/24 02:00:05;;;;;;;;;;;;;;;21.55;67.27;100091.53;1087833;54;19948;-81
2022/07/24 02:01:09;;;;;;;;;;;;;;;21.54;67.13;100096.13;1087627;54;19943;-80
2022/07/24 02:02:10;;;;;;;;;;;;;;;21.51;67.26;100096.56;1087778;54;19942;-79
2022/07/24 02:03:14;;;;;;;;;;;;;;;21.52;67.41;100092.81;1087789;54;19946;-80
2022/07/24 02:04:15;;;;;;;;;;;;;;;21.53;67.45;100085.47;1087769;54;19943;-81
2022/07/24 02:05:19;;;;;;;;;;;;;;;21.64;67.08;100101.97;1087788;54;19946;-79
2022/07/24 02:06:20;;;;;;;;;;;;;;;21.75;66.23;100080.56;1087796;54;19942;-80
2022/07/24 02:07:24;;;;;;;;;;;;;;;21.77;66.61;100092.09;1087838;47;20251;-80
2022/07/24 02:08:27;;;;;;;;;;;;;;;21.71;66.68;100082.09;1087712;54;19942;-82
2022/07/24 02:09:31;;;;;;;;;;;;;;;21.74;66.58;100089.78;1087805;54;19943;-83
2022/07/24 02:10:33;;;;;;;;;;;;;;;21.77;66.33;100087.47;1087773;54;19946;-79
2022/07/24 02:11:36;;;;;;;;;;;;;;;21.82;65.78;100084.13;1087819;54;19942;-80
2022/07/24 02:12:38;;;;;;;;;;;;;;;21.91;65.59;100088.25;1087806;54;19946;-79
2022/07/24 02:13:42;;;;;;;;;;;;;;;21.96;65.22;100080.25;1087735;54;19958;-79
2022/07/24 02:14:44;;;;;;;;;;;;;;;22.01;65.25;100085.03;1087807;54;19966;-81
2022/07/24 02:15:47;;;;;;;;;;;;;;;22.03;65.27;100087.53;1087804;54;19948;-80
2022/07/24 02:16:48;;;;;;;;;;;;;;;22.08;65.10;100083.09;1087822;54;19946;-79
2022/07/24 02:17:53;;;;;;;;;;;;;;;22.09;64.85;100084.75;1087742;54;19939;-80
2022/07/24 02:18:56;;;;;;;;;;;;;;;22.09;64.80;100083.94;1087814;54;19943;-80
2022/07/24 02:19:58;;;;;;;;;;;;;;;22.08;64.76;100085.81;1092375;39;20869;-80
2022/07/24 02:21:02;;;;;;;;;;;;;;;22.07;64.81;100084.16;1087801;54;19943;-80
2022/07/24 02:22:03;;;;;;;;;;;;;;;22.07;64.85;100089.59;1087872;47;19949;-79
2022/07/24 02:23:07;;;;;;;;;;;;;;;22.08;64.33;100085.81;1087704;54;19986;-80
2022/07/24 02:24:11;;;;;;;;;;;;;;;22.07;64.58;100086.03;1087792;54;19943;-80
2022/07/24 02:25:15;;;;;;;;;;;;;;;22.02;64.74;100091.28;1087779;54;19949;-79
2022/07/24 02:26:16;;;;;;;;;;;;;;;21.96;65.30;100096.56;1087759;54;19943;-79
2022/07/24 02:27:20;;;;;;;;;;;;;;;21.85;65.70;100083.66;1087785;54;19942;-80
2022/07/24 02:28:21;;;;;;;;;;;;;;;21.76;66.28;100088.53;1088823;47;19942;-82
2022/07/24 02:29:25;;;;;;;;;;;;;;;21.70;66.20;100089.41;1087766;54;19943;-81
2022/07/24 02:30:26;;;;;;;;;;;;;;;21.64;66.72;100093.81;1087787;54;19958;-80
2022/07/24 02:31:30;;;;;;;;;;;;;;;21.62;66.75;100093.22;1087752;54;20633;-80
2022/07/24 02:32:31;;;;;;;;;;;;;;;21.58;66.79;100102.00;1087782;54;19948;-79
2022/07/24 02:33:35;;;;;;;;;;;;;;;21.51;67.15;100096.56;1087724;54;19942;-81
2022/07/24 02:34:36;;;;;;;;;;;;;;;21.47;67.17;100087.16;1087793;54;19943;-79
2022/07/24 02:35:40;;;;;;;;;;;;;;;21.44;67.02;100090.34;1087701;54;19942;-80
2022/07/24 02:36:42;;;;;;;;;;;;;;;21.42;67.13;100092.44;1088979;31;20567;-80
2022/07/24 02:37:46;;;;;;;;;;;;;;;21.38;66.92;100091.19;1087366;54;20759;-79
2022/07/24 02:38:47;;;;;;;;;;;;;;;21.40;66.79;100083.66;1087728;54;20020;-79
2022/07/24 02:39:53;;;;;;;;;;;;;;;21.35;67.06;100087.84;1087766;54;19942;-81
2022/07/24 02:40:55;;;;;;;;;;;;;;;21.36;67.31;100096.84;1087729;54;19942;-80
2022/07/24 02:41:58;;;;;;;;;;;;;;;21.33;66.98;100095.41;1087746;54;19943;-81
2022/07/24 02:42:59;;;;;;;;;;;;;;;21.36;66.89;100102.28;1087681;54;19950;-80
2022/07/24 02:44:03;;;;;;;;;;;;;;;21.41;67.09;100101.63;1087791;54;19942;-80
2022/07/24 02:45:05;;;;;;;;;;;;;;;21.45;66.67;100091.97;1087833;54;19942;-80
2022/07/24 02:46:09;;;;;;;;;;;;;;;21.40;66.91;100094.53;1088164;54;20692;-79
2022/07/24 02:47:10;;;;;;;;;;;;;;;21.35;67.67;100095.16;1088013;54;19965;-81
2022/07/24 02:48:14;;;;;;;;;;;;;;;21.31;68.03;100091.19;1089440;47;19943;-81
2022/07/24 02:49:15;;;;;;;;;;;;;;;21.29;68.14;100094.16;1088172;54;20188;-81
2022/07/24 02:50:19;;;;;;;;;;;;;;;21.27;68.58;100089.97;1087976;54;20019;-80
2022/07/24 02:51:20;;;;;;;;;;;;;;;21.23;68.60;100088.72;1088122;54;19946;-80
2022/07/24 02:52:24;;;;;;;;;;;;;;;21.25;68.35;100092.91;1088126;54;19950;-80
2022/07/24 02:53:25;;;;;;;;;;;;;;;21.25;68.71;100092.91;1087987;54;19950;-81
2022/07/24 02:54:29;;;;;;;;;;;;;;;21.25;68.70;100092.91;1088132;54;19927;-81
2022/07/24 02:55:33;;;;;;;;;;;;;;;21.24;69.46;100093.13;1088049;54;19927;-80
2022/07/24 02:56:36;;;;;;;;;;;;;;;21.22;69.53;100098.78;1088091;54;19982;-80
2022/07/24 02:57:38;;;;;;;;;;;;;;;21.21;69.80;100093.56;1088169;54;19942;-79
2022/07/24 02:58:41;;;;;;;;;;;;;;;21.22;69.76;100085.19;1088075;46;19966;-79
2022/07/24 02:59:44;;;;;;;;;;;;;;;21.16;70.00;100096.91;1088605;47;19926;-80
2022/07/24 03:00:48;;;;;;;;;;;;;;;21.14;70.17;100102.56;1087814;54;19949;-80
2022/07/24 03:01:49;;;;;;;;;;;;;;;21.11;70.71;100096.72;1087760;54;19946;-79
2022/07/24 03:02:53;;;;;;;;;;;;;;;21.03;70.58;100103.19;1087663;54;20898;-82
2022/07/24 03:03:54;;;;;;;;;;;;;;;21.01;70.68;100102.59;1091621;39;20545;-81
2022/07/24 03:04:58;;;;;;;;;;;;;;;21.02;70.77;100099.66;1087741;54;20013;-81
2022/07/24 03:05:59;;;;;;;;;;;;;;;21.02;70.50;100098.81;1087713;54;19942;-80
2022/07/24 03:07:03;;;;;;;;;;;;;;;21.00;71.04;100104.47;1087745;54;20571;-79
2022/07/24 03:08:04;;;;;;;;;;;;;;;21.02;70.77;100107.81;1087729;54;19942;-80
2022/07/24 03:09:08;;;;;;;;;;;;;;;21.02;70.90;100098.81;1087802;54;19942;-80
2022/07/24 03:10:10;;;;;;;;;;;;;;;21.07;70.71;100101.75;1087743;54;19949;-80
2022/07/24 03:11:16;;;;;;;;;;;;;;;21.09;70.18;100096.94;1087720;54;19942;-81
2022/07/24 03:12:17;;;;;;;;;;;;;;;21.14;69.96;100104.44;1087881;54;19943;-80
2022/07/24 03:13:21;;;;;;;;;;;;;;;21.12;70.25;100098.38;1088072;54;19934;-80
2022/07/24 03:14:22;;;;;;;;;;;;;;;21.10;70.84;100103.19;1088310;54;19943;-81
2022/07/24 03:15:26;;;;;;;;;;;;;;;21.06;70.92;100101.97;1088850;39;20818;-80
2022/07/24 03:16:27;;;;;;;;;;;;;;;21.04;70.87;100108.44;1088490;54;19927;-79
2022/07/24 03:17:31;;;;;;;;;;;;;;;21.01;71.11;100108.84;1090837;46;19942;-79
2022/07/24 03:18:32;;;;;;;;;;;;;;;21.03;71.04;100104.06;1088040;54;19950;-79
2022/07/24 03:19:36;;;;;;;;;;;;;;;21.01;71.23;100106.13;1088054;54;19938;-79
2022/07/24 03:20:37;;;;;;;;;;;;;;;21.06;71.05;100107.41;1088058;54;19950;-79
2022/07/24 03:21:40;;;;;;;;;;;;;;;21.01;71.11;100113.47;1087974;54;19998;-78
2022/07/24 03:22:42;;;;;;;;;;;;;;;20.96;71.77;100110.53;1088380;46;19942;-79
2022/07/24 03:23:45;;;;;;;;;;;;;;;20.93;71.71;100103.66;1087950;54;20010;-80
2022/07/24 03:24:46;;;;;;;;;;;;;;;20.96;71.78;100110.53;1088071;54;20006;-79
2022/07/24 03:25:52;;;;;;;;;;;;;;;20.95;71.90;100109.72;1087999;54;19943;-80
2022/07/24 03:26:56;;;;;;;;;;;;;;;20.88;72.28;100114.31;1088097;54;19995;-80
2022/07/24 03:28:00;;;;;;;;;;;;;;;20.82;72.45;100109.72;1088394;54;19943;-79
2022/07/24 03:29:01;;;;;;;;;;;;;;;20.82;72.55;100109.72;1088396;54;19943;-79
2022/07/24 03:30:05;;;;;;;;;;;;;;;20.83;72.02;100112.22;1088387;54;19949;-79
2022/07/24 03:31:06;;;;;;;;;;;;;;;20.82;72.60;100116.00;1088400;54;19942;-81
2022/07/24 03:32:10;;;;;;;;;;;;;;;20.87;72.04;100107.22;1088954;46;19926;-78
2022/07/24 03:33:11;;;;;;;;;;;;;;;20.85;71.79;100112.84;1088373;54;19943;-79
2022/07/24 03:34:15;;;;;;;;;;;;;;;20.86;71.97;100113.69;1088476;54;19942;-79
2022/07/24 03:35:16;;;;;;;;;;;;;;;20.78;71.75;100112.03;1088230;54;19950;-79
2022/07/24 03:36:20;;;;;;;;;;;;;;;20.78;72.08;100113.91;1088748;46;19934;-79
2022/07/24 03:37:21;;;;;;;;;;;;;;;20.72;72.42;100115.56;1088405;54;19942;-81
2022/07/24 03:38:25;;;;;;;;;;;;;;;20.70;72.36;100112.22;1087837;54;19981;-79
2022/07/24 03:39:34;;;;;;;;;;;;;;;20.71;71.90;100116.59;1088373;54;20073;-80
2022/07/24 03:40:38;;;;;;;;;;;;;;;20.67;72.07;100115.34;1091376;39;21053;-81
2022/07/24 03:41:39;;;;;;;;;;;;;;;20.73;71.74;100120.81;1088247;54;19943;-80
2022/07/24 03:42:46;;;;;;;;;;;;;;;20.79;71.12;100111.00;1088306;54;19949;-81
2022/07/24 03:43:47;;;;;;;;;;;;;;;20.83;70.79;100120.38;1088386;54;19949;-82
2022/07/24 03:44:50;;;;;;;;;;;;;;;20.86;70.36;100119.13;1088117;54;19949;-81
2022/07/24 03:45:51;;;;;;;;;;;;;;;20.94;70.26;100115.34;1089551;46;19957;-81
2022/07/24 03:46:55;;;;;;;;;;;;;;;20.95;69.84;100117.88;1087984;54;19942;-80
2022/07/24 03:47:56;;;;;;;;;;;;;;;21.01;69.60;100117.00;1089378;46;20622;-81
2022/07/24 03:49:00;;;;;;;;;;;;;;;21.03;69.19;100120.34;1088086;54;19942;-80
2022/07/24 03:50:04;;;;;;;;;;;;;;;21.04;69.09;100119.31;1089107;46;19945;-79
2022/07/24 03:51:05;;;;;;;;;;;;;;;21.00;68.81;100120.78;1089249;46;19950;-79
2022/07/24 03:52:09;;;;;;;;;;;;;;;20.93;69.28;100116.38;1088721;46;20692;-79
2022/07/24 03:53:11;;;;;;;;;;;;;;;20.87;69.31;100118.09;1087902;54;19943;-80
2022/07/24 03:54:14;;;;;;;;;;;;;;;20.86;69.29;100113.69;1087901;54;19943;-80
2022/07/24 03:55:16;;;;;;;;;;;;;;;20.84;69.09;100119.31;1087953;54;19949;-79
2022/07/24 03:56:20;;;;;;;;;;;;;;;20.78;69.38;100119.34;1087987;54;19942;-80
2022/07/24 03:57:21;;;;;;;;;;;;;;;20.75;69.51;100125.19;1087967;54;19942;-80
2022/07/24 03:58:27;;;;;;;;;;;;;;;20.64;69.92;100119.31;1087911;54;19954;-80
2022/07/24 03:59:28;;;;;;;;;;;;;;;20.62;70.70;100121.41;1088056;54;19943;-80
2022/07/24 04:00:32;;;;;;;;;;;;;;;20.61;70.58;100130.59;1088672;46;19951;-78
2022/07/24 04:01:33;;;;;;;;;;;;;;;20.58;70.44;100131.84;1088299;54;19939;-80
2022/07/24 04:02:37;;;;;;;;;;;;;;;20.52;71.21;100124.56;1088217;54;19954;-81
2022/07/24 04:03:38;;;;;;;;;;;;;;;20.50;71.24;100139.38;1088259;54;19938;-78
2022/07/24 04:04:42;;;;;;;;;;;;;;;20.47;71.17;100137.06;1089079;46;20603;-78
2022/07/24 04:05:43;;;;;;;;;;;;;;;20.45;71.11;100133.72;1089773;46;19938;-79
2022/07/24 04:06:47;;;;;;;;;;;;;;;20.44;71.27;100142.91;1088227;54;19949;-79
2022/07/24 04:07:48;;;;;;;;;;;;;;;20.41;71.80;100139.56;1088376;54;19943;-80
2022/07/24 04:08:51;;;;;;;;;;;;;;;20.39;71.69;100141.66;1088180;54;19943;-79
2022/07/24 04:09:53;;;;;;;;;;;;;;;20.36;71.88;100133.06;1088323;54;19931;-79
2022/07/24 04:10:57;;;;;;;;;;;;;;;20.35;71.92;100136.88;1088861;46;19943;-81
2022/07/24 04:11:58;;;;;;;;;;;;;;;20.37;72.20;100140.19;1089150;39;20621;-82
2022/07/24 04:13:02;;;;;;;;;;;;;;;20.33;72.71;100138.94;1088274;54;19935;-80
2022/07/24 04:14:05;;;;;;;;;;;;;;;20.26;73.05;100145.19;1088378;54;19935;-79
2022/07/24 04:15:10;;;;;;;;;;;;;;;20.20;73.75;100145.19;1088129;54;19949;-79
2022/07/24 04:16:11;;;;;;;;;;;;;;;20.17;73.52;100143.69;1088306;54;19950;-79
2022/07/24 04:17:15;;;;;;;;;;;;;;;20.18;73.46;100141.84;1089425;46;19949;-79
2022/07/24 04:18:16;;;;;;;;;;;;;;;20.18;73.75;100145.38;1088179;54;19957;-79
2022/07/24 04:19:19;;;;;;;;;;;;;;;20.18;73.30;100149.97;1088315;54;19938;-80
2022/07/24 04:20:21;;;;;;;;;;;;;;;20.15;73.33;100147.66;1088221;54;19943;-78
2022/07/24 04:21:25;;;;;;;;;;;;;;;20.10;73.14;100146.41;1088039;54;19945;-78
2022/07/24 04:22:29;;;;;;;;;;;;;;;20.16;73.24;100149.34;1088180;54;19942;-80
2022/07/24 04:23:30;;;;;;;;;;;;;;;20.18;72.88;100144.56;1088252;54;19942;-79
2022/07/24 04:24:34;;;;;;;;;;;;;;;20.25;72.76;100150.81;1088075;54;19939;-82
2022/07/24 04:25:35;;;;;;;;;;;;;;;20.26;72.29;100155.22;1087930;54;19949;-81
2022/07/24 04:26:39;;;;;;;;;;;;;;;20.19;72.31;100143.50;1087892;54;19942;-81
2022/07/24 04:27:43;;;;;;;;;;;;;;;20.23;72.29;100150.19;1088126;54;19942;-80
2022/07/24 04:28:47;;;;;;;;;;;;;;;20.20;72.14;100147.91;1087093;54;19946;-79
2022/07/24 04:29:50;;;;;;;;;;;;;;;20.25;71.82;100153.53;1086199;46;19970;-78
2022/07/24 04:30:54;;;;;;;;;;;;;;;20.24;71.82;100162.72;1088063;54;19950;-82
2022/07/24 04:31:55;;;;;;;;;;;;;;;20.19;71.79;100157.09;1088235;46;20488;-79
2022/07/24 04:32:59;;;;;;;;;;;;;;;20.19;71.67;100154.38;1088027;46;20015;-80
2022/07/24 04:34:00;;;;;;;;;;;;;;;20.14;71.85;100156.84;1088173;54;19957;-82
2022/07/24 04:35:04;;;;;;;;;;;;;;;20.12;71.85;100154.34;1088237;54;19942;-80
2022/07/24 04:36:05;;;;;;;;;;;;;;;20.14;72.11;100156.84;1087958;54;19927;-81
2022/07/24 04:37:09;;;;;;;;;;;;;;;20.10;71.88;100161.84;1088088;54;19989;-83
2022/07/24 04:38:10;;;;;;;;;;;;;;;20.12;71.70;100154.34;1093947;39;20542;-84
2022/07/24 04:39:14;;;;;;;;;;;;;;;20.15;71.87;100158.53;1087735;54;20968;-84
2022/07/24 04:40:15;;;;;;;;;;;;;;;20.16;71.71;100155.63;1088465;46;19934;-83
2022/07/24 04:41:19;;;;;;;;;;;;;;;20.20;71.53;100156.03;1088289;54;20117;-84
2022/07/24 04:42:20;;;;;;;;;;;;;;;20.24;71.24;100157.28;1088196;54;19943;-84
2022/07/24 04:43:24;;;;;;;;;;;;;;;20.26;70.92;100160.63;1090264;39;20436;-82
2022/07/24 04:44:25;;;;;;;;;;;;;;;20.29;71.15;100157.53;1088291;54;19943;-82
2022/07/24 04:45:31;;;;;;;;;;;;;;;20.30;70.92;100156.47;1088115;54;19950;-82
2022/07/24 04:46:35;;;;;;;;;;;;;;;20.32;70.80;100159.81;1095468;39;20424;-82
2022/07/24 04:47:36;;;;;;;;;;;;;;;20.33;70.72;100155.22;1088601;46;20921;-82
2022/07/24 04:48:40;;;;;;;;;;;;;;;20.36;70.26;100160.22;1088101;54;19934;-83
2022/07/24 04:49:41;;;;;;;;;;;;;;;20.30;70.19;100153.78;1088274;54;19946;-86
2022/07/24 04:50:45;;;;;;;;;;;;;;;20.25;70.63;100153.53;1088236;54;19942;-86
2022/07/24 04:51:46;;;;;;;;;;;;;;;20.27;70.34;100151.47;1088088;54;19942;-83
2022/07/24 04:52:50;;;;;;;;;;;;;;;20.30;70.75;100161.91;1088202;54;19938;-81
2022/07/24 04:53:52;;;;;;;;;;;;;;;20.27;70.29;100160.41;1091855;39;20506;-83
2022/07/24 04:54:56;;;;;;;;;;;;;;;20.31;70.25;100158.13;1087912;54;19946;-81
2022/07/24 04:55:58;;;;;;;;;;;;;;;20.35;69.77;100159.41;1087927;54;19943;-84
2022/07/24 04:57:02;;;;;;;;;;;;;;;20.34;69.93;100157.72;1087879;54;19943;-81
2022/07/24 04:58:03;;;;;;;;;;;;;;;20.40;69.57;100162.31;1088753;46;19965;-79
2022/07/24 04:59:06;;;;;;;;;;;;;;;20.42;69.86;100164.84;1087749;54;19943;-83
2022/07/24 05:00:09;;;;;;;;;;;;;;;20.46;69.76;100167.97;1087986;54;19935;-85
2022/07/24 05:01:16;;;;;;;;;;;;;;;20.45;69.81;100161.69;1087896;54;19935;-84
2022/07/24 05:02:17;;;;;;;;;;;;;;;20.37;69.94;100160.03;1087977;54;19943;-84
2022/07/24 05:03:21;;;;;;;;;;;;;;;20.37;70.15;100168.19;1090115;39;20517;-83
2022/07/24 05:04:22;;;;;;;;;;;;;;;20.40;69.82;100166.94;1088111;54;19931;-84
2022/07/24 05:05:26;;;;;;;;;;;;;;;20.44;69.59;100172.78;1096287;39;20510;-82
2022/07/24 05:06:27;;;;;;;;;;;;;;;20.47;69.38;100166.94;1088271;54;19943;-84
2022/07/24 05:07:39;;;;;;;;;;;;;;;20.50;69.60;100171.97;1088300;54;20058;-84
2022/07/24 05:08:40;;;;;;;;;;;;;;;20.51;69.33;100163.59;1088337;54;19942;-84
2022/07/24 05:55:42;;;;;;;;;;;;;;;;;;1087523;54;19939;-82
2022/07/24 05:56:54;;;;;;;;;;;;;;;21.63;66.17;100149.25;1087553;54;19942;-81
2022/07/24 05:57:58;;;;;;;;;;;;;;;21.69;66.13;100153.00;1087836;54;19999;-83
2022/07/24 05:58:59;;;;;;;;;;;;;;;21.72;65.94;100152.59;1088806;39;20546;-82
2022/07/24 06:00:03;;;;;;;;;;;;;;;21.78;65.73;100149.00;1087829;54;19938;-81
2022/07/24 06:01:04;;;;;;;;;;;;;;;21.77;65.91;100144.59;1087818;54;19967;-80
2022/07/24 06:02:08;;;;;;;;;;;;;;;21.67;66.32;100149.69;1087877;54;19950;-79
2022/07/24 06:03:09;;;;;;;;;;;;;;;21.66;66.09;100148.84;1087843;54;19942;-80
2022/07/24 06:04:13;;;;;;;;;;;;;;;21.68;66.08;100153.22;1087831;54;19934;-80
2022/07/24 06:05:15;;;;;;;;;;;;;;;21.67;66.16;100146.97;1087731;54;19949;-81
2022/07/24 06:06:18;;;;;;;;;;;;;;;21.59;66.24;100153.47;1087835;54;19942;-80
2022/07/24 06:07:19;;;;;;;;;;;;;;;21.59;66.54;100153.47;1087864;54;19942;-80
2022/07/24 06:08:23;;;;;;;;;;;;;;;21.66;66.45;100154.28;1087804;54;19943;-80
2022/07/24 06:09:24;;;;;;;;;;;;;;;21.64;66.05;100155.56;1087869;54;19970;-80
2022/07/24 06:10:28;;;;;;;;;;;;;;;21.58;66.27;100153.66;1087846;54;19942;-80
2022/07/24 06:11:29;;;;;;;;;;;;;;;21.52;66.54;100149.91;1087825;54;19995;-82